Time;durP1;ratioP1;P1;durP2;ratioP2;P2;SDS_P1;SDS_P2;PMS_P1;PMS_P2;Temp;Humidity;BMP_temperature;BMP_pressure;BME280_temperature;BME280_humidity;BME280_pressure;Samples;Min_cycle;Max_cycle;Signal;HPM_P1;HPM_P2
2022/07/30 00:02:15;;;;;;;5.57;5.18;;;24.60;57.30;;;;;;5002344;28;20186;-85
2022/07/30 00:04:42;;;;;;;6.47;5.47;;;24.60;56.80;;;;;;5020772;28;20197;-84
2022/07/30 00:07:08;;;;;;;6.15;5.53;;;24.60;57.80;;;;;;5019125;28;20300;-85
2022/07/30 00:09:34;;;;;;;6.13;5.63;;;24.40;58.70;;;;;;5002937;28;20216;-85
2022/07/30 00:11:59;;;;;;;6.13;5.60;;;24.40;57.90;;;;;;5007164;28;20189;-85
2022/07/30 00:14:25;;;;;;;5.55;5.13;;;24.40;58.20;;;;;;5009063;28;20190;-84
2022/07/30 00:16:52;;;;;;;5.82;5.43;;;24.40;58.30;;;;;;5014590;28;20184;-83
2022/07/30 00:19:19;;;;;;;6.13;5.63;;;24.40;57.80;;;;;;5012480;28;20198;-84
2022/07/30 00:21:45;;;;;;;5.72;5.28;;;24.30;58.50;;;;;;5017669;28;20186;-84
2022/07/30 00:24:11;;;;;;;6.15;5.60;;;24.10;59.10;;;;;;5016529;28;20201;-85
2022/07/30 00:26:37;;;;;;;6.20;5.57;;;24.20;58.80;;;;;;5019754;28;20208;-85
2022/07/30 00:29:03;;;;;;;5.68;5.28;;;24.20;58.40;;;;;;5019114;28;20214;-86
2022/07/30 00:31:29;;;;;;;6.05;5.55;;;24.20;58.30;;;;;;5017758;28;20281;-84
2022/07/30 00:33:55;;;;;;;5.93;5.47;;;24.20;58.90;;;;;;4998452;28;20228;-85
2022/07/30 00:36:21;;;;;;;6.45;5.85;;;24.10;58.60;;;;;;5011698;28;20217;-86
2022/07/30 00:38:47;;;;;;;6.18;5.78;;;24.00;58.60;;;;;;5011796;28;20289;-86
2022/07/30 00:41:13;;;;;;;6.95;6.32;;;23.90;59.40;;;;;;5016944;28;20198;-84
2022/07/30 00:43:38;;;;;;;6.07;5.60;;;23.80;60.10;;;;;;5012109;28;20788;-84
2022/07/30 00:46:04;;;;;;;5.75;5.35;;;23.60;61.10;;;;;;5018784;28;20231;-84
2022/07/30 00:48:30;;;;;;;6.15;5.60;;;23.30;61.20;;;;;;5009204;28;20233;-84
2022/07/30 00:50:56;;;;;;;6.05;5.65;;;23.50;60.80;;;;;;4994485;28;20191;-83
2022/07/30 00:53:21;;;;;;;6.30;5.70;;;23.50;60.70;;;;;;5027966;28;20390;-81
2022/07/30 00:55:47;;;;;;;5.95;5.43;;;23.50;61.10;;;;;;5017262;28;20724;-86
2022/07/30 00:58:13;;;;;;;5.40;4.95;;;23.50;60.30;;;;;;5013539;28;20678;-86
2022/07/30 01:00:39;;;;;;;5.72;5.20;;;23.60;59.90;;;;;;5018625;28;20648;-85
2022/07/30 01:03:05;;;;;;;6.20;5.60;;;23.50;60.80;;;;;;5000753;28;20663;-87
2022/07/30 01:05:31;;;;;;;5.63;5.22;;;23.50;60.40;;;;;;5016251;28;20178;-85
2022/07/30 01:07:57;;;;;;;6.10;5.60;;;23.60;59.60;;;;;;5015352;28;20282;-85
2022/07/30 01:10:23;;;;;;;6.40;5.95;;;23.60;59.50;;;;;;4981353;28;20314;-86
2022/07/30 01:12:51;;;;;;;6.70;6.13;;;23.60;59.90;;;;;;5015873;28;20186;-86
2022/07/30 01:15:17;;;;;;;5.90;5.43;;;23.60;59.50;;;;;;5010462;28;20268;-85
2022/07/30 01:17:45;;;;;;;6.47;5.53;;;23.60;59.40;;;;;;4977733;28;20225;-87
2022/07/30 01:20:16;;;;;;;5.97;5.47;;;23.40;60.60;;;;;;5011949;28;20189;-85
2022/07/30 01:23:08;;;;;;;5.93;5.60;;;23.20;61.80;;;;;;5018922;28;20264;-83
2022/07/30 01:25:59;;;;;;;6.45;5.85;;;23.20;61.30;;;;;;5027201;28;20196;-84
2022/07/30 01:28:47;;;;;;;6.10;5.50;;;23.30;60.50;;;;;;5018512;28;20209;-85
2022/07/30 01:31:14;;;;;;;6.10;5.60;;;23.10;62.00;;;;;;5026770;28;20621;-84
2022/07/30 01:33:43;;;;;;;5.90;5.47;;;22.90;63.40;;;;;;5026378;28;20254;-84
2022/07/30 01:36:13;;;;;;;6.30;5.70;;;22.90;62.80;;;;;;5011308;28;20181;-85
2022/07/30 01:38:41;;;;;;;7.60;6.18;;;23.00;62.30;;;;;;5008534;28;20225;-85
2022/07/30 01:41:08;;;;;;;6.25;5.75;;;22.80;62.80;;;;;;5026248;28;20174;-85
2022/07/30 01:43:35;;;;;;;7.05;6.00;;;22.90;62.50;;;;;;5026684;28;20225;-85
2022/07/30 01:46:05;;;;;;;5.85;5.45;;;22.90;62.40;;;;;;4994450;28;20281;-85
2022/07/30 01:48:35;;;;;;;6.05;5.63;;;22.80;62.20;;;;;;4993873;28;20233;-84
2022/07/30 01:51:04;;;;;;;6.53;6.00;;;22.90;62.30;;;;;;5006945;28;20181;-84
2022/07/30 01:53:35;;;;;;;6.28;5.88;;;22.90;62.10;;;;;;5018520;28;20201;-84
2022/07/30 01:56:02;;;;;;;6.45;5.97;;;22.80;62.40;;;;;;5006894;28;20204;-84
2022/07/30 01:58:34;;;;;;;7.50;5.55;;;22.80;62.40;;;;;;5022800;28;20210;-84
2022/07/30 02:01:00;;;;;;;8.50;5.53;;;22.70;62.80;;;;;;5021154;28;20190;-84
2022/07/30 02:03:26;;;;;;;6.43;5.88;;;22.60;63.10;;;;;;5026592;28;20185;-84
2022/07/30 02:06:00;;;;;;;6.45;5.95;;;22.60;62.70;;;;;;5026672;28;20198;-85
2022/07/30 02:08:28;;;;;;;6.90;5.50;;;22.60;62.80;;;;;;5009072;28;20209;-85
2022/07/30 02:11:06;;;;;;;6.13;5.50;;;22.60;62.80;;;;;;5037173;28;20194;-84
2022/07/30 02:13:35;;;;;;;6.20;5.80;;;22.60;62.60;;;;;;5027238;28;20200;-85
2022/07/30 02:16:35;;;;;;;5.82;5.40;;;22.60;62.90;;;;;;5026415;28;20182;-85
2022/07/30 02:19:13;;;;;;;5.80;5.40;;;22.50;63.00;;;;;;5009250;28;20284;-84
2022/07/30 02:21:43;;;;;;;6.05;5.55;;;22.50;62.90;;;;;;5002942;28;20193;-85
2022/07/30 02:24:13;;;;;;;6.30;5.70;;;22.50;62.70;;;;;;5021306;28;20245;-86
2022/07/30 02:26:41;;;;;;;5.93;5.43;;;22.50;62.70;;;;;;5004676;28;20226;-87
2022/07/30 02:29:09;;;;;;;6.63;5.70;;;22.40;62.40;;;;;;5010239;28;20220;-85
2022/07/30 02:31:37;;;;;;;6.93;5.50;;;22.30;63.20;;;;;;5025832;28;20182;-85
2022/07/30 02:34:05;;;;;;;6.40;5.80;;;22.00;64.90;;;;;;4979147;28;20248;-85
2022/07/30 02:36:32;;;;;;;5.97;5.57;;;22.10;63.90;;;;;;5030432;28;20241;-84
2022/07/30 02:39:01;;;;;;;6.05;5.45;;;22.10;63.80;;;;;;5028805;28;20209;-85
2022/07/30 02:41:29;;;;;;;6.28;5.88;;;22.10;63.40;;;;;;5007964;28;20193;-86
2022/07/30 02:43:56;;;;;;;6.47;5.85;;;22.20;62.60;;;;;;5012194;28;20615;-87
2022/07/30 02:46:23;;;;;;;5.95;5.55;;;22.30;62.40;;;;;;5009531;28;20200;-85
2022/07/30 02:48:52;;;;;;;6.07;5.53;;;22.30;62.30;;;;;;5019502;28;20218;-85
2022/07/30 02:51:19;;;;;;;6.07;5.68;;;22.40;62.90;;;;;;5015628;28;20191;-86
2022/07/30 02:53:47;;;;;;;5.82;5.43;;;22.30;62.30;;;;;;5014505;28;20201;-86
2022/07/30 02:56:14;;;;;;;6.00;5.45;;;22.30;62.40;;;;;;5026298;28;20181;-87
2022/07/30 02:58:43;;;;;;;6.65;5.93;;;22.20;62.80;;;;;;5023234;28;20209;-86
2022/07/30 03:01:12;;;;;;;5.78;5.30;;;22.10;63.20;;;;;;5013858;28;20193;-85
2022/07/30 03:03:39;;;;;;;5.75;5.25;;;22.10;63.00;;;;;;5027688;28;20592;-84
2022/07/30 03:06:08;;;;;;;5.97;5.47;;;22.10;63.20;;;;;;5013470;28;20190;-85
2022/07/30 03:08:35;;;;;;;5.72;5.30;;;22.10;62.90;;;;;;5012917;28;20234;-85
2022/07/30 03:11:02;;;;;;;6.20;5.80;;;22.10;63.00;;;;;;5028380;28;20173;-85
2022/07/30 03:13:28;;;;;;;6.25;5.75;;;22.00;63.30;;;;;;5025503;28;20196;-85
2022/07/30 03:15:57;;;;;;;6.00;5.60;;;22.00;63.40;;;;;;5024977;28;20210;-85
2022/07/30 03:18:26;;;;;;;5.90;5.40;;;22.00;63.20;;;;;;5017667;28;20240;-86
2022/07/30 03:20:55;;;;;;;6.53;5.90;;;22.00;62.90;;;;;;5029084;28;20252;-85
2022/07/30 03:23:22;;;;;;;5.93;5.43;;;22.00;62.90;;;;;;4997549;28;20221;-86
2022/07/30 03:25:55;;;;;;;5.93;5.30;;;22.00;63.00;;;;;;5019933;28;20217;-86
2022/07/30 03:28:22;;;;;;;5.80;5.30;;;22.00;62.90;;;;;;5020016;28;20213;-85
2022/07/30 03:30:50;;;;;;;6.47;6.05;;;22.00;62.90;;;;;;5022294;28;20185;-85
2022/07/30 03:33:16;;;;;;;6.38;5.75;;;22.00;62.90;;;;;;5003113;28;20247;-86
2022/07/30 03:35:42;;;;;;;5.85;5.35;;;21.70;63.90;;;;;;5016647;28;20190;-84
2022/07/30 03:38:13;;;;;;;6.07;5.68;;;21.70;64.10;;;;;;5025887;28;20279;-85
2022/07/30 03:40:41;;;;;;;6.43;5.95;;;21.70;63.90;;;;;;5016305;28;20521;-83
2022/07/30 03:43:09;;;;;;;8.70;6.15;;;21.60;63.90;;;;;;5006530;28;20194;-82
2022/07/30 03:45:46;;;;;;;6.78;6.18;;;21.30;65.50;;;;;;5034160;28;20209;-80
2022/07/30 03:48:12;;;;;;;6.90;6.30;;;21.20;65.70;;;;;;5026041;28;20265;-86
2022/07/30 03:50:40;;;;;;;6.55;6.00;;;21.20;65.80;;;;;;5027270;28;20192;-85
2022/07/30 03:53:07;;;;;;;6.45;5.88;;;21.30;65.40;;;;;;5015273;28;20198;-85
2022/07/30 03:55:34;;;;;;;6.13;5.63;;;21.40;64.70;;;;;;5028906;28;20769;-85
2022/07/30 03:58:00;;;;;;;7.28;5.93;;;21.20;65.00;;;;;;4998887;28;20233;-84
2022/07/30 04:00:26;;;;;;;5.95;5.45;;;21.30;64.90;;;;;;5006741;28;20205;-85
2022/07/30 04:02:52;;;;;;;6.38;5.78;;;21.10;65.70;;;;;;5023889;28;20185;-84
2022/07/30 04:05:19;;;;;;;6.82;6.18;;;21.20;65.50;;;;;;5019893;28;20219;-85
2022/07/30 04:07:45;;;;;;;8.32;6.00;;;21.10;66.40;;;;;;5001690;28;20214;-85
2022/07/30 04:10:11;;;;;;;8.38;6.00;;;21.10;65.70;;;;;;5022251;28;20210;-85
2022/07/30 04:12:37;;;;;;;6.78;6.15;;;20.90;66.20;;;;;;5005824;28;20198;-83
2022/07/30 04:15:03;;;;;;;6.63;6.05;;;20.80;66.80;;;;;;5009452;28;20192;-85
2022/07/30 04:17:40;;;;;;;6.43;5.93;;;20.80;67.10;;;;;;5040953;28;20219;-85
2022/07/30 04:20:30;;;;;;;6.45;5.90;;;20.70;67.30;;;;;;5016698;28;20193;-85
2022/07/30 04:22:57;;;;;;;6.35;5.80;;;20.70;67.80;;;;;;5021136;28;20188;-85
2022/07/30 04:25:24;;;;;;;6.90;6.20;;;20.60;68.50;;;;;;5023053;28;20200;-84
2022/07/30 04:27:49;;;;;;;6.90;6.30;;;20.40;69.50;;;;;;5022775;28;20211;-86
2022/07/30 04:30:16;;;;;;;5.97;5.38;;;20.10;70.80;;;;;;5013454;28;20554;-85
2022/07/30 04:32:43;;;;;;;8.68;6.68;;;20.20;70.30;;;;;;5015992;28;20217;-86
2022/07/30 04:35:09;;;;;;;6.10;5.55;;;20.30;69.60;;;;;;5025832;28;20672;-84
2022/07/30 04:37:34;;;;;;;7.45;6.05;;;20.40;69.30;;;;;;4998787;28;20215;-85
2022/07/30 04:40:00;;;;;;;8.27;6.47;;;20.60;68.50;;;;;;5001365;28;20272;-84
2022/07/30 04:42:27;;;;;;;6.75;6.15;;;20.70;67.90;;;;;;5020605;28;20186;-85
2022/07/30 04:44:53;;;;;;;7.28;6.68;;;20.90;67.20;;;;;;5018902;28;20199;-85
2022/07/30 04:47:20;;;;;;;7.25;6.75;;;20.90;67.00;;;;;;5018799;28;20221;-84
2022/07/30 04:49:47;;;;;;;6.65;6.05;;;21.00;66.90;;;;;;5022255;28;20584;-85
2022/07/30 04:52:14;;;;;;;6.07;5.68;;;21.00;67.00;;;;;;5019538;28;20197;-85
2022/07/30 04:54:50;;;;;;;6.95;6.38;;;20.80;67.50;;;;;;5006805;28;20233;-85
2022/07/30 04:57:17;;;;;;;6.28;5.78;;;20.90;67.30;;;;;;5014397;28;20287;-85
2022/07/30 04:59:44;;;;;;;6.82;6.22;;;21.00;67.20;;;;;;5023946;28;20211;-83
2022/07/30 05:02:10;;;;;;;6.40;5.95;;;21.00;66.90;;;;;;5019009;28;20193;-84
2022/07/30 05:04:37;;;;;;;7.15;6.55;;;21.00;66.50;;;;;;4999755;28;20189;-86
2022/07/30 05:07:05;;;;;;;10.05;6.78;;;21.10;66.60;;;;;;5000587;28;20214;-86
2022/07/30 05:09:32;;;;;;;7.47;6.90;;;21.10;66.30;;;;;;5005879;28;20260;-84
2022/07/30 05:11:58;;;;;;;6.93;6.43;;;21.20;66.10;;;;;;5021842;28;20186;-85
2022/07/30 05:14:25;;;;;;;7.13;6.53;;;21.20;66.30;;;;;;5024285;28;20188;-83
2022/07/30 05:16:51;;;;;;;7.65;6.95;;;21.20;66.40;;;;;;5018886;28;20189;-82
2022/07/30 05:19:18;;;;;;;7.38;6.78;;;21.20;66.50;;;;;;5015579;28;20682;-86
2022/07/30 05:21:44;;;;;;;10.95;6.50;;;21.20;66.70;;;;;;5023330;28;20193;-85
2022/07/30 05:24:10;;;;;;;7.40;6.82;;;21.20;66.90;;;;;;5020735;28;20627;-86
2022/07/30 05:26:36;;;;;;;7.38;6.68;;;21.20;66.80;;;;;;5017754;28;20189;-85
2022/07/30 05:29:02;;;;;;;9.90;7.32;;;21.20;66.90;;;;;;5020752;28;20213;-85
2022/07/30 05:31:27;;;;;;;8.05;7.32;;;21.20;67.40;;;;;;5016914;28;20189;-85
2022/07/30 05:33:53;;;;;;;8.10;7.30;;;21.20;67.70;;;;;;5019414;28;20200;-85
2022/07/30 05:36:19;;;;;;;6.72;6.13;;;21.00;69.50;;;;;;5019967;28;20244;-86
2022/07/30 05:38:46;;;;;;;8.02;7.43;;;21.00;68.70;;;;;;5015024;28;20213;-86
2022/07/30 05:41:11;;;;;;;6.78;6.28;;;21.10;68.10;;;;;;5022128;28;20189;-86
2022/07/30 05:43:37;;;;;;;6.88;6.35;;;21.00;68.50;;;;;;5017937;28;20205;-87
2022/07/30 05:46:03;;;;;;;8.40;7.30;;;21.10;68.50;;;;;;5028194;28;20193;-85
2022/07/30 05:48:30;;;;;;;7.63;7.03;;;21.20;68.80;;;;;;5031151;28;20245;-84
2022/07/30 05:50:56;;;;;;;6.70;6.20;;;21.10;67.10;;;;;;5022038;28;20194;-84
2022/07/30 05:53:21;;;;;;;8.07;7.28;;;21.30;67.30;;;;;;5027448;28;20241;-86
2022/07/30 05:55:47;;;;;;;7.45;6.80;;;21.30;67.00;;;;;;5021813;28;20224;-85
2022/07/30 05:58:13;;;;;;;7.50;6.82;;;21.30;66.20;;;;;;5010655;28;20282;-86
2022/07/30 06:00:38;;;;;;;7.78;6.95;;;21.20;66.60;;;;;;5014407;28;20194;-86
2022/07/30 06:03:04;;;;;;;8.80;6.78;;;21.00;68.00;;;;;;5009790;28;20198;-86
2022/07/30 06:05:31;;;;;;;7.57;6.88;;;21.10;67.90;;;;;;5009576;28;20208;-88
2022/07/30 06:07:57;;;;;;;7.70;6.78;;;21.10;68.00;;;;;;5027896;28;20212;-86
2022/07/30 06:10:22;;;;;;;6.72;6.13;;;21.00;66.70;;;;;;5025328;28;20207;-86
2022/07/30 06:12:48;;;;;;;7.68;6.97;;;21.10;67.20;;;;;;5007910;28;20193;-89
2022/07/30 06:15:14;;;;;;;7.47;6.65;;;21.00;67.00;;;;;;5025352;28;20219;-88
2022/07/30 06:17:44;;;;;;;7.50;6.90;;;21.00;67.30;;;;;;5014013;28;20205;-88
2022/07/30 06:20:12;;;;;;;7.13;6.43;;;21.10;67.30;;;;;;5013139;28;20733;-87
2022/07/30 06:22:38;;;;;;;8.93;7.18;;;21.10;67.80;;;;;;5022631;28;20193;-88
2022/07/30 06:25:04;;;;;;;7.22;6.57;;;21.20;67.30;;;;;;5021005;28;20186;-87
2022/07/30 06:27:32;;;;;;;7.35;6.65;;;21.40;65.70;;;;;;5004958;28;20213;-85
2022/07/30 06:30:02;;;;;;;11.80;10.93;;;21.40;65.40;;;;;;5024873;28;20810;-86
2022/07/30 06:32:28;;;;;;;7.55;6.85;;;21.40;65.00;;;;;;5022782;28;20203;-85
2022/07/30 06:34:53;;;;;;;6.80;6.40;;;21.40;65.10;;;;;;5016828;28;20215;-83
2022/07/30 06:37:19;;;;;;;6.70;6.20;;;21.40;65.30;;;;;;5021161;28;20200;-84
2022/07/30 06:39:45;;;;;;;7.18;6.53;;;21.50;65.30;;;;;;5005218;28;20247;-84
2022/07/30 06:42:10;;;;;;;7.00;6.30;;;21.50;65.10;;;;;;5020185;28;20203;-84
2022/07/30 06:44:36;;;;;;;8.60;7.05;;;21.60;64.70;;;;;;5018862;28;20223;-85
2022/07/30 06:47:02;;;;;;;7.32;6.68;;;21.60;64.40;;;;;;5019959;28;20206;-85
2022/07/30 06:49:31;;;;;;;7.93;6.72;;;21.70;64.30;;;;;;5023038;28;20237;-85
2022/07/30 06:51:56;;;;;;;6.80;6.28;;;21.80;63.60;;;;;;5022010;28;20193;-82
2022/07/30 06:54:22;;;;;;;7.13;6.53;;;21.80;64.00;;;;;;5014866;28;20688;-84
2022/07/30 06:56:48;;;;;;;8.32;6.07;;;22.10;63.70;;;;;;5011564;28;20197;-85
2022/07/30 06:59:14;;;;;;;9.52;6.97;;;22.20;63.40;;;;;;5005573;28;20208;-85
2022/07/30 07:01:39;;;;;;;9.55;6.88;;;22.30;61.80;;;;;;5015405;28;20205;-84
2022/07/30 07:04:05;;;;;;;6.93;6.30;;;22.40;61.60;;;;;;5022261;28;20190;-84
2022/07/30 07:06:31;;;;;;;9.63;6.53;;;22.40;61.80;;;;;;5000565;28;20584;-84
2022/07/30 07:08:57;;;;;;;7.00;6.40;;;22.70;61.30;;;;;;5017587;28;20605;-84
2022/07/30 07:11:24;;;;;;;7.18;6.47;;;22.80;60.80;;;;;;5020796;28;20186;-83
2022/07/30 07:13:49;;;;;;;7.05;6.53;;;22.80;60.10;;;;;;5021297;28;20186;-84
2022/07/30 07:16:15;;;;;;;6.57;6.07;;;23.00;60.90;;;;;;5005789;28;20254;-85
2022/07/30 07:18:41;;;;;;;6.53;5.90;;;23.30;59.70;;;;;;5018360;28;20229;-84
2022/07/30 07:21:07;;;;;;;6.38;5.78;;;23.50;58.50;;;;;;5011499;28;20189;-85
2022/07/30 07:23:33;;;;;;;6.47;5.88;;;23.40;59.40;;;;;;5017215;28;20680;-84
2022/07/30 07:25:59;;;;;;;6.95;6.20;;;23.50;58.90;;;;;;5013974;28;20616;-84
2022/07/30 07:28:25;;;;;;;6.13;5.63;;;23.70;58.70;;;;;;5016701;28;20259;-83
2022/07/30 07:30:51;;;;;;;7.20;5.70;;;23.60;57.90;;;;;;5000886;28;20214;-83
2022/07/30 07:33:16;;;;;;;7.60;6.07;;;23.80;57.20;;;;;;5001430;28;20186;-84
2022/07/30 07:35:42;;;;;;;7.07;6.18;;;23.80;57.70;;;;;;5013354;28;20186;-85
2022/07/30 07:38:08;;;;;;;6.93;6.43;;;24.00;57.10;;;;;;5013530;28;20229;-84
2022/07/30 07:40:34;;;;;;;7.18;6.30;;;24.00;56.60;;;;;;5005789;28;20625;-85
2022/07/30 07:43:00;;;;;;;7.57;5.85;;;23.70;57.70;;;;;;5007950;28;20390;-85
2022/07/30 07:45:25;;;;;;;7.05;6.45;;;23.60;58.10;;;;;;5010733;28;20242;-84
2022/07/30 07:47:51;;;;;;;6.60;6.00;;;23.60;58.30;;;;;;5014544;28;20233;-85
2022/07/30 07:50:18;;;;;;;7.88;6.85;;;23.80;57.60;;;;;;4992499;28;20264;-84
2022/07/30 07:52:44;;;;;;;9.40;6.25;;;24.00;56.90;;;;;;4995612;28;20206;-83
2022/07/30 07:55:10;;;;;;;8.65;6.13;;;23.90;57.80;;;;;;5010712;28;20186;-86
2022/07/30 07:57:40;;;;;;;6.80;5.82;;;24.10;54.80;;;;;;5015481;28;20220;-84
2022/07/30 08:00:09;;;;;;;7.10;6.28;;;24.20;54.90;;;;;;5016890;28;20182;-84
2022/07/30 08:02:35;;;;;;;6.22;5.63;;;24.10;54.90;;;;;;5014117;28;20190;-83
2022/07/30 08:05:02;;;;;;;12.25;6.53;;;23.80;55.80;;;;;;5019495;28;20560;-82
2022/07/30 08:07:29;;;;;;;8.85;6.18;;;23.70;56.00;;;;;;5014081;28;20225;-84
2022/07/30 08:09:55;;;;;;;7.03;5.43;;;23.60;58.30;;;;;;5015696;28;20231;-82
2022/07/30 08:12:20;;;;;;;6.32;5.82;;;23.70;58.10;;;;;;5020453;28;20185;-84
2022/07/30 08:14:46;;;;;;;7.15;6.60;;;23.70;56.90;;;;;;5016117;28;20189;-85
2022/07/30 08:17:11;;;;;;;6.68;6.18;;;23.70;56.60;;;;;;5013706;28;20288;-83
2022/07/30 08:19:37;;;;;;;6.78;6.28;;;23.80;56.00;;;;;;5008211;28;20276;-82
2022/07/30 08:22:03;;;;;;;7.00;6.35;;;23.80;56.10;;;;;;5011378;28;20248;-84
2022/07/30 08:24:28;;;;;;;7.50;6.72;;;23.80;55.10;;;;;;5004191;28;20288;-85
2022/07/30 08:26:54;;;;;;;6.95;6.35;;;23.80;55.60;;;;;;5012425;28;20215;-84
2022/07/30 08:29:20;;;;;;;7.28;6.57;;;24.00;54.80;;;;;;4989485;28;20712;-86
2022/07/30 08:31:45;;;;;;;6.32;5.75;;;24.40;53.90;;;;;;5011114;28;20190;-85
2022/07/30 08:34:12;;;;;;;6.80;6.30;;;24.60;54.00;;;;;;4996887;28;20263;-85
2022/07/30 08:36:38;;;;;;;9.70;6.75;;;24.70;53.90;;;;;;5014544;28;20185;-85
2022/07/30 08:39:04;;;;;;;9.25;6.55;;;24.90;51.00;;;;;;5016569;28;20559;-84
2022/07/30 08:41:30;;;;;;;6.40;5.90;;;25.10;49.30;;;;;;5015734;28;20212;-85
2022/07/30 08:43:59;;;;;;;6.65;6.13;;;25.20;48.30;;;;;;5010080;28;20676;-85
2022/07/30 08:46:29;;;;;;;7.05;6.30;;;25.30;49.50;;;;;;5018545;28;20221;-85
2022/07/30 08:48:55;;;;;;;6.15;5.75;;;25.50;48.80;;;;;;4995829;28;20213;-85
2022/07/30 08:51:22;;;;;;;7.15;6.45;;;25.50;47.90;;;;;;5014167;28;20274;-85
2022/07/30 08:53:49;;;;;;;6.47;5.85;;;25.60;46.60;;;;;;5016362;28;20214;-85
2022/07/30 08:56:15;;;;;;;6.90;5.95;;;25.70;48.10;;;;;;5013927;28;20190;-85
2022/07/30 08:58:41;;;;;;;7.15;5.88;;;25.70;47.40;;;;;;4999139;28;20762;-85
2022/07/30 09:01:07;;;;;;;7.40;5.82;;;25.70;47.60;;;;;;4997239;28;20194;-85
2022/07/30 09:03:34;;;;;;;5.72;5.40;;;25.70;47.60;;;;;;5016914;28;20182;-85
2022/07/30 09:06:01;;;;;;;8.10;5.43;;;25.80;46.70;;;;;;5020495;28;20951;-85
2022/07/30 09:08:27;;;;;;;5.45;5.05;;;26.10;44.50;;;;;;5013240;28;20235;-85
2022/07/30 09:10:53;;;;;;;5.60;5.10;;;26.20;43.70;;;;;;5008597;28;20187;-84
2022/07/30 09:13:24;;;;;;;6.25;5.72;;;26.20;44.50;;;;;;5006422;28;20259;-85
2022/07/30 09:15:50;;;;;;;6.30;4.68;;;26.10;44.40;;;;;;5016786;28;20182;-85
2022/07/30 09:18:27;;;;;;;4.25;3.92;;;26.40;37.90;;;;;;5011543;28;20204;-85
2022/07/30 09:20:52;;;;;;;4.97;4.60;;;26.60;36.90;;;;;;5018822;28;20236;-84
2022/07/30 09:23:18;;;;;;;6.13;5.53;;;26.70;41.80;;;;;;5016309;28;20542;-84
2022/07/30 09:25:46;;;;;;;5.95;5.47;;;26.90;40.20;;;;;;5011049;28;20204;-83
2022/07/30 09:28:12;;;;;;;6.38;5.47;;;27.00;40.30;;;;;;5019051;28;20221;-84
2022/07/30 09:30:48;;;;;;;6.05;5.20;;;26.80;42.00;;;;;;5010924;28;20182;-84
2022/07/30 09:33:29;;;;;;;5.55;5.15;;;27.00;41.80;;;;;;5017425;28;20233;-85
2022/07/30 09:35:55;;;;;;;5.30;4.85;;;27.10;40.80;;;;;;5009717;28;20186;-85
2022/07/30 09:38:22;;;;;;;5.78;5.28;;;27.30;40.90;;;;;;5014604;28;20217;-85
2022/07/30 09:40:52;;;;;;;6.05;5.50;;;27.30;40.30;;;;;;4991989;28;20268;-85
2022/07/30 09:43:18;;;;;;;5.90;5.43;;;27.10;41.10;;;;;;5011423;28;20670;-85
2022/07/30 09:45:54;;;;;;;6.18;5.10;;;27.30;41.10;;;;;;5021354;28;20207;-85
2022/07/30 09:48:21;;;;;;;5.75;5.05;;;27.30;39.20;;;;;;5017946;28;20300;-85
2022/07/30 09:50:49;;;;;;;5.57;5.07;;;27.50;39.00;;;;;;5012944;28;20186;-85
2022/07/30 09:53:15;;;;;;;5.82;5.38;;;27.50;39.00;;;;;;5015625;28;20205;-85
2022/07/30 09:55:40;;;;;;;5.18;4.55;;;27.50;38.70;;;;;;5015477;28;20190;-85
2022/07/30 09:58:06;;;;;;;5.55;5.13;;;27.60;38.40;;;;;;5015856;28;20198;-85
2022/07/30 10:00:35;;;;;;;6.03;5.40;;;28.20;37.40;;;;;;5011522;28;20190;-85
2022/07/30 10:03:13;;;;;;;5.70;5.20;;;28.40;37.80;;;;;;5013266;28;20660;-84
2022/07/30 10:05:52;;;;;;;5.70;5.20;;;28.00;38.10;;;;;;5010938;28;20209;-85
2022/07/30 10:08:19;;;;;;;5.22;4.82;;;28.00;37.30;;;;;;5010519;28;20202;-85
2022/07/30 10:10:45;;;;;;;6.03;5.10;;;27.90;38.10;;;;;;5014371;28;20289;-85
2022/07/30 10:13:13;;;;;;;5.25;4.75;;;27.80;38.60;;;;;;5011023;28;20190;-85
2022/07/30 10:15:39;;;;;;;6.03;5.18;;;28.00;39.00;;;;;;5012857;28;20202;-84
2022/07/30 10:18:05;;;;;;;5.93;5.32;;;28.40;37.90;;;;;;5008404;28;20206;-84
2022/07/30 10:20:31;;;;;;;5.85;5.35;;;28.70;36.30;;;;;;5010692;28;20190;-85
2022/07/30 10:22:57;;;;;;;5.22;4.82;;;28.80;36.10;;;;;;5012964;28;20207;-84
2022/07/30 10:25:25;;;;;;;4.88;4.50;;;28.80;36.70;;;;;;5006326;28;20186;-85
2022/07/30 10:27:52;;;;;;;5.18;4.68;;;28.80;35.70;;;;;;5008724;28;20205;-84
2022/07/30 10:30:18;;;;;;;5.22;4.82;;;29.00;34.70;;;;;;5016967;28;20683;-84
2022/07/30 10:32:45;;;;;;;4.97;4.57;;;29.20;34.50;;;;;;5008493;28;20280;-84
2022/07/30 10:35:12;;;;;;;5.13;4.75;;;29.30;34.50;;;;;;5005460;28;20217;-85
2022/07/30 10:37:46;;;;;;;4.80;4.30;;;29.40;34.50;;;;;;5010711;28;20236;-84
2022/07/30 10:40:23;;;;;;;6.93;4.60;;;29.60;33.40;;;;;;5009969;28;20236;-84
2022/07/30 10:43:12;;;;;;;5.28;4.70;;;29.80;33.60;;;;;;5007468;28;20189;-84
2022/07/30 10:45:37;;;;;;;4.82;4.45;;;29.80;31.80;;;;;;5003289;28;20186;-85
2022/07/30 10:48:04;;;;;;;5.18;4.78;;;30.30;31.50;;;;;;4988235;28;20732;-84
2022/07/30 10:50:30;;;;;;;4.93;4.53;;;30.40;32.60;;;;;;5008884;28;20873;-84
2022/07/30 10:53:00;;;;;;;5.28;4.82;;;30.20;31.70;;;;;;5008120;28;20473;-84
2022/07/30 10:55:28;;;;;;;5.50;4.70;;;29.90;32.40;;;;;;5020641;28;20178;-84
2022/07/30 10:58:00;;;;;;;4.57;4.13;;;30.20;31.80;;;;;;4997358;28;20289;-83
2022/07/30 11:00:27;;;;;;;5.40;4.75;;;30.20;31.40;;;;;;5001982;28;20186;-85
2022/07/30 11:03:15;;;;;;;5.35;4.95;;;30.20;32.20;;;;;;5010216;28;20193;-85
2022/07/30 11:05:43;;;;;;;5.53;4.93;;;30.50;31.50;;;;;;5009076;28;20198;-85
2022/07/30 11:08:49;;;;;;;4.75;4.35;;;30.40;31.50;;;;;;5014885;28;20246;-84
2022/07/30 11:11:20;;;;;;;4.97;4.57;;;30.80;30.40;;;;;;5010176;28;20189;-85
2022/07/30 11:13:53;;;;;;;5.85;4.60;;;30.90;30.00;;;;;;5010807;28;20198;-84
2022/07/30 11:16:21;;;;;;;7.60;4.53;;;31.20;30.70;;;;;;5008880;28;20411;-84
2022/07/30 11:19:05;;;;;;;4.90;4.60;;;31.10;30.00;;;;;;5011037;28;20210;-84
2022/07/30 11:21:31;;;;;;;4.53;4.13;;;31.10;29.70;;;;;;5014049;28;20185;-84
2022/07/30 11:23:57;;;;;;;4.90;4.50;;;31.10;29.80;;;;;;5015705;28;20198;-84
2022/07/30 11:26:40;;;;;;;6.00;4.60;;;31.40;29.20;;;;;;5010588;28;20190;-84
2022/07/30 11:29:07;;;;;;;5.20;4.75;;;31.60;29.00;;;;;;5009197;28;20277;-85
2022/07/30 11:31:35;;;;;;;4.15;3.85;;;31.50;29.60;;;;;;5011641;28;20189;-84
2022/07/30 11:34:20;;;;;;;4.53;4.03;;;31.60;28.80;;;;;;5006185;28;20187;-85
2022/07/30 11:37:05;;;;;;;4.85;4.50;;;32.20;29.20;;;;;;5012210;28;20197;-84
2022/07/30 11:39:54;;;;;;;4.88;4.57;;;32.40;28.50;;;;;;5011592;28;20197;-85
2022/07/30 11:42:29;;;;;;;4.85;4.28;;;32.10;28.70;;;;;;5002363;28;20680;-82
2022/07/30 11:45:21;;;;;;;4.40;4.10;;;32.20;28.70;;;;;;5014611;28;20177;-83
2022/07/30 11:47:52;;;;;;;5.03;4.70;;;32.20;28.30;;;;;;5021494;28;20197;-82
2022/07/30 11:50:23;;;;;;;4.60;4.20;;;32.10;28.20;;;;;;5022300;28;20209;-82
2022/07/30 11:52:50;;;;;;;4.15;3.88;;;31.90;28.70;;;;;;5020689;28;20265;-84
2022/07/30 11:55:29;;;;;;;4.80;4.50;;;32.00;29.50;;;;;;5013856;28;20214;-84
2022/07/30 11:57:55;;;;;;;4.32;4.03;;;32.10;29.10;;;;;;5012324;28;20206;-84
2022/07/30 12:00:21;;;;;;;8.52;4.25;;;31.80;28.90;;;;;;4996250;28;20197;-84
2022/07/30 12:02:48;;;;;;;4.68;4.10;;;32.10;28.70;;;;;;5001246;28;20197;-84
2022/07/30 12:05:14;;;;;;;4.78;4.10;;;32.70;28.00;;;;;;4989593;28;20193;-85
2022/07/30 12:07:40;;;;;;;4.80;4.50;;;33.10;27.50;;;;;;5014631;28;20707;-85
2022/07/30 12:10:17;;;;;;;4.80;4.40;;;33.80;26.50;;;;;;5018509;28;20208;-85
2022/07/30 12:12:44;;;;;;;4.90;4.50;;;33.60;26.20;;;;;;5034074;28;20206;-86
2022/07/30 12:15:26;;;;;;;4.80;4.40;;;32.80;26.40;;;;;;5024590;28;20294;-87
2022/07/30 12:17:52;;;;;;;4.70;4.22;;;32.30;27.50;;;;;;5028681;28;20217;-85
2022/07/30 12:20:19;;;;;;;5.20;4.40;;;32.40;27.40;;;;;;5008202;28;20200;-85
2022/07/30 12:22:46;;;;;;;3.92;3.72;;;32.50;27.90;;;;;;5003651;28;20181;-84
2022/07/30 12:25:12;;;;;;;10.05;4.97;;;32.50;27.60;;;;;;5021872;28;20185;-84
2022/07/30 12:27:39;;;;;;;4.32;3.95;;;32.30;27.90;;;;;;5005631;28;20300;-85
2022/07/30 12:30:06;;;;;;;4.80;4.40;;;32.70;27.20;;;;;;5016019;28;20202;-84
2022/07/30 12:32:32;;;;;;;4.88;4.57;;;33.40;27.30;;;;;;5016229;28;20185;-85
2022/07/30 12:34:57;;;;;;;4.55;4.25;;;33.20;26.70;;;;;;5023598;28;20754;-86
2022/07/30 12:37:27;;;;;;;3.92;3.72;;;32.30;27.20;;;;;;5021542;28;20205;-85
2022/07/30 12:40:11;;;;;;;4.50;4.10;;;32.10;27.40;;;;;;4992620;28;20190;-84
2022/07/30 12:42:51;;;;;;;4.75;4.30;;;32.10;27.70;;;;;;5010304;28;20182;-85
2022/07/30 12:45:29;;;;;;;4.30;3.90;;;32.20;27.90;;;;;;5016456;28;20209;-85
2022/07/30 12:47:54;;;;;;;5.43;3.95;;;32.10;27.70;;;;;;5015966;28;20209;-85
2022/07/30 12:50:20;;;;;;;4.63;4.35;;;32.40;27.30;;;;;;5021458;28;20208;-84
2022/07/30 12:52:51;;;;;;;4.65;4.15;;;33.00;27.30;;;;;;5019478;28;20581;-84